Time;durP1;ratioP1;P1;durP2;ratioP2;P2;SDS_P1;SDS_P2;PMS_P1;PMS_P2;Temp;Humidity;BMP_temperature;BMP_pressure;BME280_temperature;BME280_humidity;BME280_pressure;Samples;Min_cycle;Max_cycle;Signal;HPM_P1;HPM_P2
2024/02/14 00:00:33;;;;;;;;;;;;;;;3.24;78.45;100157.94;5115771;28;19931;-66
2024/02/14 00:03:02;;;;;;;;;;;;;;;3.22;78.61;100157.03;5115610;28;19923;-66
2024/02/14 00:05:32;;;;;;;;;;;;;;;3.14;79.08;100151.72;5115475;28;19920;-66
2024/02/14 00:08:01;;;;;;;;;;;;;;;3.22;78.90;100157.03;5115655;28;19926;-65
2024/02/14 00:10:29;;;;;;;;;;;;;;;3.15;78.67;100152.56;5114111;28;19920;-66
2024/02/14 00:12:58;;;;;;;;;;;;;;;3.12;78.72;100157.53;5115444;28;19965;-66
2024/02/14 00:15:27;;;;;;;;;;;;;;;3.07;78.71;100153.97;5115515;28;19958;-66
2024/02/14 00:17:55;;;;;;;;;;;;;;;2.98;79.07;100153.63;5115522;28;19926;-66
2024/02/14 00:20:24;;;;;;;;;;;;;;;3.00;79.18;100162.13;5113944;28;20006;-66
2024/02/14 00:23:01;;;;;;;;;;;;;;;2.96;78.50;100161.13;5115049;28;19920;-66
2024/02/14 00:25:31;;;;;;;;;;;;;;;2.94;79.53;100166.91;5115003;28;19942;-65
2024/02/14 00:28:00;;;;;;;;;;;;;;;2.95;79.05;100163.63;5115384;28;19927;-66
2024/02/14 00:30:30;;;;;;;;;;;;;;;2.82;79.50;100161.41;5114931;28;19920;-65
2024/02/14 00:33:24;;;;;;;;;;;;;;;2.80;79.74;100163.03;5113792;28;19931;-66
2024/02/14 00:35:53;;;;;;;;;;;;;;;2.76;79.69;100167.09;5115167;28;20389;-66
2024/02/14 00:38:23;;;;;;;;;;;;;;;2.74;79.98;100166.16;5115162;28;20387;-66
2024/02/14 00:40:51;;;;;;;;;;;;;;;2.66;79.11;100165.88;5115104;28;20006;-66
2024/02/14 00:43:19;;;;;;;;;;;;;;;2.60;79.95;100165.66;5113676;28;19919;-66
2024/02/14 00:45:48;;;;;;;;;;;;;;;2.64;79.47;100171.66;5114695;28;20365;-66
2024/02/14 00:48:17;;;;;;;;;;;;;;;2.58;79.89;100167.25;5114981;28;19919;-66
2024/02/14 00:50:45;;;;;;;;;;;;;;;2.44;79.95;100158.31;5114665;28;19927;-66
2024/02/14 00:53:14;;;;;;;;;;;;;;;2.44;79.62;100160.84;5114812;28;19926;-66
2024/02/14 00:55:44;;;;;;;;;;;;;;;2.43;79.77;100170.81;5114899;28;19927;-66
2024/02/14 00:58:12;;;;;;;;;;;;;;;2.37;79.41;100165.56;5115195;28;20327;-66
2024/02/14 01:00:41;;;;;;;;;;;;;;;2.33;79.65;100164.56;5114584;28;19932;-66
2024/02/14 01:03:12;;;;;;;;;;;;;;;2.28;79.56;100166.03;5114697;28;20081;-66
2024/02/14 01:05:41;;;;;;;;;;;;;;;2.29;80.33;100162.75;5114443;28;20361;-66
2024/02/14 01:08:09;;;;;;;;;;;;;;;2.29;80.42;100157.69;5114796;28;19926;-66
2024/02/14 01:10:38;;;;;;;;;;;;;;;2.32;80.23;100157.84;5113275;28;19946;-66
2024/02/14 01:13:08;;;;;;;;;;;;;;;2.36;80.94;100159.66;5114667;28;19973;-66
2024/02/14 01:15:36;;;;;;;;;;;;;;;2.40;80.76;100161.50;5113183;28;19976;-66
2024/02/14 01:18:05;;;;;;;;;;;;;;;2.47;81.34;100163.44;5114273;28;19931;-66
2024/02/14 01:20:33;;;;;;;;;;;;;;;2.51;81.33;100165.31;5114703;28;19923;-66
2024/02/14 01:23:02;;;;;;;;;;;;;;;2.54;81.07;100167.91;5114563;28;19919;-66
2024/02/14 01:25:32;;;;;;;;;;;;;;;2.54;81.09;100175.47;5114668;28;20315;-66
2024/02/14 01:28:01;;;;;;;;;;;;;;;2.55;81.26;100171.31;5118722;28;20369;-66
2024/02/14 01:30:31;;;;;;;;;;;;;;;2.55;80.97;100167.13;5118603;28;20375;-67
2024/02/14 01:33:00;;;;;;;;;;;;;;;2.54;80.56;100165.41;5116992;28;20343;-66
2024/02/14 01:35:29;;;;;;;;;;;;;;;2.55;80.95;100169.66;5118698;28;19927;-67
2024/02/14 01:37:57;;;;;;;;;;;;;;;2.51;80.29;100170.34;5118511;27;19919;-66
2024/02/14 01:40:26;;;;;;;;;;;;;;;2.49;80.98;100171.09;5118507;28;20303;-66
2024/02/14 01:43:03;;;;;;;;;;;;;;;2.48;80.29;100165.19;5118289;28;19919;-67
2024/02/14 01:45:33;;;;;;;;;;;;;;;2.45;80.41;100165.06;5116684;28;19927;-67
2024/02/14 01:48:11;;;;;;;;;;;;;;;2.40;80.85;100166.53;5118276;28;19923;-66
2024/02/14 01:50:40;;;;;;;;;;;;;;;2.37;80.46;100166.44;5117908;28;19990;-67
2024/02/14 01:53:09;;;;;;;;;;;;;;;2.34;80.66;100166.31;5117055;28;19919;-67
2024/02/14 01:55:38;;;;;;;;;;;;;;;2.32;79.98;100169.56;5116767;28;19979;-67
2024/02/14 01:58:06;;;;;;;;;;;;;;;2.32;80.41;100167.91;5117990;28;19927;-67
2024/02/14 02:00:36;;;;;;;;;;;;;;;2.31;80.50;100173.72;5118113;28;19973;-67
2024/02/14 02:03:10;;;;;;;;;;;;;;;2.33;79.70;100164.56;5118173;27;19965;-65
2024/02/14 02:05:39;;;;;;;;;;;;;;;2.23;79.69;100170.03;5116805;28;19927;-67
2024/02/14 02:08:09;;;;;;;;;;;;;;;2.17;79.60;100167.28;5117725;28;20281;-67
2024/02/14 02:10:38;;;;;;;;;;;;;;;2.16;80.04;100165.56;5118052;28;20018;-66
2024/02/14 02:13:27;;;;;;;;;;;;;;;2.14;80.26;100162.13;5117765;28;20377;-67
2024/02/14 02:16:18;;;;;;;;;;;;;;;2.09;80.00;100168.63;5117566;28;20421;-66
2024/02/14 02:19:09;;;;;;;;;;;;;;;2.08;80.08;100161.03;5117445;28;20365;-67
2024/02/14 02:21:58;;;;;;;;;;;;;;;2.05;80.54;100161.75;5116571;28;20035;-67
2024/02/14 02:24:30;;;;;;;;;;;;;;;2.00;80.56;100163.22;5117459;27;19924;-67
2024/02/14 02:26:58;;;;;;;;;;;;;;;1.94;80.46;100163.81;5117208;28;19919;-67
2024/02/14 02:29:47;;;;;;;;;;;;;;;1.93;81.25;100166.28;5117201;28;19919;-66
2024/02/14 02:32:16;;;;;;;;;;;;;;;1.92;80.98;100159.56;5117586;28;19923;-67
2024/02/14 02:34:45;;;;;;;;;;;;;;;1.89;80.80;100164.44;5117551;27;19927;-66
2024/02/14 02:37:13;;;;;;;;;;;;;;;1.82;81.36;100167.50;5117179;28;19967;-67
2024/02/14 02:40:02;;;;;;;;;;;;;;;1.79;81.61;100157.31;5117535;28;19927;-67
2024/02/14 02:42:50;;;;;;;;;;;;;;;1.78;80.71;100155.56;5117157;28;19926;-67
2024/02/14 02:45:39;;;;;;;;;;;;;;;1.69;81.09;100161.09;5117026;28;19920;-67
2024/02/14 02:48:27;;;;;;;;;;;;;;;1.68;81.29;100161.06;5116829;28;19919;-67
2024/02/14 02:50:59;;;;;;;;;;;;;;;1.68;81.50;100168.59;5117520;28;19919;-67
2024/02/14 02:53:46;;;;;;;;;;;;;;;1.68;80.91;100171.94;5117011;28;19930;-66
2024/02/14 02:56:36;;;;;;;;;;;;;;;1.69;81.56;100172.81;5116662;28;19920;-67
2024/02/14 02:59:04;;;;;;;;;;;;;;;1.66;81.57;100172.69;5116745;28;20285;-67
2024/02/14 03:01:36;;;;;;;;;;;;;;;1.65;81.59;100173.50;5116565;28;20083;-66
2024/02/14 03:04:25;;;;;;;;;;;;;;;1.64;81.73;100171.75;5102062;28;19924;-67
2024/02/14 03:07:33;;;;;;;;;;;;;;;1.66;81.30;100181.09;5116009;28;19924;-66
2024/02/14 03:10:22;;;;;;;;;;;;;;;1.62;81.47;100178.38;5101948;28;19924;-66
2024/02/14 03:13:12;;;;;;;;;;;;;;;1.61;81.70;100184.22;5116435;28;20011;-66
2024/02/14 03:16:01;;;;;;;;;;;;;;;1.58;81.63;100196.66;5115720;28;19919;-67
2024/02/14 03:18:29;;;;;;;;;;;;;;;1.53;81.00;100193.09;5116615;28;20429;-67
2024/02/14 03:20:58;;;;;;;;;;;;;;;1.51;81.31;100202.22;5116600;28;20022;-67
2024/02/14 03:23:27;;;;;;;;;;;;;;;1.52;80.92;100202.28;5116534;28;19923;-67
2024/02/14 03:25:56;;;;;;;;;;;;;;;1.40;81.71;100210.94;5116086;28;19977;-67
2024/02/14 03:28:27;;;;;;;;;;;;;;;1.29;81.67;100218.03;5116446;28;19964;-67
2024/02/14 03:30:57;;;;;;;;;;;;;;;1.32;81.73;100218.13;5116306;28;19920;-66
2024/02/14 03:33:28;;;;;;;;;;;;;;;1.33;82.15;100220.75;5116464;28;20025;-66
2024/02/14 03:35:57;;;;;;;;;;;;;;;1.34;82.17;100227.47;5116426;28;19924;-67
2024/02/14 03:38:26;;;;;;;;;;;;;;;1.36;82.54;100227.56;5116276;28;19920;-66
2024/02/14 03:40:55;;;;;;;;;;;;;;;1.30;82.45;100235.69;5114957;28;20011;-67
2024/02/14 03:43:24;;;;;;;;;;;;;;;1.18;81.77;100235.13;5115855;28;19926;-66
2024/02/14 03:45:54;;;;;;;;;;;;;;;1.15;81.88;100245.03;5116150;28;19964;-66
2024/02/14 03:48:22;;;;;;;;;;;;;;;1.20;82.57;100242.75;5115398;28;20012;-66
2024/02/14 03:50:51;;;;;;;;;;;;;;;1.24;82.11;100237.06;5115854;28;19926;-66
2024/02/14 03:53:20;;;;;;;;;;;;;;;1.19;82.59;100241.91;5115922;28;19920;-66
2024/02/14 03:55:49;;;;;;;;;;;;;;;1.14;82.55;100243.34;5115689;28;19927;-67
2024/02/14 03:58:22;;;;;;;;;;;;;;;1.15;81.92;100240.00;5114594;28;19947;-67
2024/02/14 04:00:52;;;;;;;;;;;;;;;1.10;82.02;100236.44;5115809;28;19955;-67
2024/02/14 04:03:22;;;;;;;;;;;;;;;1.11;82.44;100245.69;5115764;28;19920;-66
2024/02/14 04:05:50;;;;;;;;;;;;;;;1.11;82.72;100247.34;5097524;28;20341;-67
2024/02/14 04:08:19;;;;;;;;;;;;;;;1.07;82.65;100251.38;5115673;28;19920;-67
2024/02/14 04:10:49;;;;;;;;;;;;;;;1.11;81.98;100254.88;5115213;28;19930;-67
2024/02/14 04:13:18;;;;;;;;;;;;;;;1.08;82.47;100253.09;5115959;28;19923;-67
2024/02/14 04:15:46;;;;;;;;;;;;;;;1.03;82.44;100249.50;5115223;28;20331;-67
2024/02/14 04:18:17;;;;;;;;;;;;;;;1.05;82.08;100252.97;5115336;28;20017;-67
2024/02/14 04:20:48;;;;;;;;;;;;;;;0.99;81.90;100256.84;5115524;28;19958;-67
2024/02/14 04:23:17;;;;;;;;;;;;;;;0.89;81.70;100254.72;5115418;28;20012;-67
2024/02/14 04:25:45;;;;;;;;;;;;;;;0.87;82.01;100256.25;5096758;28;19920;-67
2024/02/14 04:28:13;;;;;;;;;;;;;;;0.92;82.25;100260.72;5115290;28;19926;-67
2024/02/14 04:30:43;;;;;;;;;;;;;;;0.88;82.18;100252.97;5114061;28;19927;-67
2024/02/14 04:33:18;;;;;;;;;;;;;;;0.93;82.59;100257.44;5115000;28;20014;-67
2024/02/14 04:35:49;;;;;;;;;;;;;;;0.84;82.33;100262.00;5115194;28;20018;-67
2024/02/14 04:38:19;;;;;;;;;;;;;;;0.81;82.79;100261.88;5115257;28;19923;-67
2024/02/14 04:40:48;;;;;;;;;;;;;;;0.82;82.45;100256.06;5115127;28;19927;-67
2024/02/14 04:43:16;;;;;;;;;;;;;;;0.85;83.03;100253.69;5114696;28;20293;-67
2024/02/14 04:45:45;;;;;;;;;;;;;;;0.83;82.33;100260.31;5114651;28;19919;-67
2024/02/14 04:48:16;;;;;;;;;;;;;;;0.81;82.85;100256.88;5114849;28;19969;-67
2024/02/14 04:50:45;;;;;;;;;;;;;;;0.75;83.18;100256.56;5114896;28;20384;-67
2024/02/14 04:53:16;;;;;;;;;;;;;;;0.72;83.20;100256.41;5113392;28;20389;-67
2024/02/14 04:55:45;;;;;;;;;;;;;;;0.72;82.45;100253.06;5114946;28;20375;-67
2024/02/14 04:58:13;;;;;;;;;;;;;;;0.71;82.60;100259.72;5114591;28;19946;-67
2024/02/14 05:00:41;;;;;;;;;;;;;;;0.70;82.89;100257.97;5114786;28;19926;-67
2024/02/14 05:03:10;;;;;;;;;;;;;;;0.64;83.14;100261.09;5114870;28;19919;-67
2024/02/14 05:05:39;;;;;;;;;;;;;;;0.63;82.50;100266.03;5114837;28;19927;-67
2024/02/14 05:08:07;;;;;;;;;;;;;;;0.62;82.56;100265.16;5114561;28;19926;-67
2024/02/14 05:10:37;;;;;;;;;;;;;;;0.64;82.76;100263.59;5115044;28;19927;-67
2024/02/14 05:13:06;;;;;;;;;;;;;;;0.62;82.83;100269.34;5114373;28;20361;-67
2024/02/14 05:15:35;;;;;;;;;;;;;;;0.63;82.88;100268.53;5114371;28;20308;-67
2024/02/14 05:18:05;;;;;;;;;;;;;;;0.64;82.81;100272.78;5115020;28;19923;-66
2024/02/14 05:20:34;;;;;;;;;;;;;;;0.56;82.22;100269.03;5114731;28;20330;-67
2024/02/14 05:23:03;;;;;;;;;;;;;;;0.45;82.75;100271.03;5113345;28;20353;-67
2024/02/14 05:25:32;;;;;;;;;;;;;;;0.44;82.83;100269.31;5114202;28;19927;-67
2024/02/14 05:28:03;;;;;;;;;;;;;;;0.47;82.92;100271.97;5114464;28;19969;-67
2024/02/14 05:30:31;;;;;;;;;;;;;;;0.47;83.11;100278.63;5114854;28;19920;-67
2024/02/14 05:33:14;;;;;;;;;;;;;;;0.39;82.42;100279.91;5114223;28;19939;-67
2024/02/14 05:35:43;;;;;;;;;;;;;;;0.35;82.84;100278.03;5114270;28;19964;-67
2024/02/14 05:38:12;;;;;;;;;;;;;;;0.39;83.13;100277.38;5113260;28;19920;-67
2024/02/14 05:40:43;;;;;;;;;;;;;;;0.43;82.47;100281.78;5114538;28;19973;-67
2024/02/14 05:43:13;;;;;;;;;;;;;;;0.46;82.87;100286.94;5113166;28;19920;-67
2024/02/14 05:45:42;;;;;;;;;;;;;;;0.49;83.13;100293.00;5114045;28;19920;-67
2024/02/14 05:48:11;;;;;;;;;;;;;;;0.47;82.95;100291.19;5114414;28;20422;-67
2024/02/14 05:50:40;;;;;;;;;;;;;;;0.45;83.00;100288.63;5114351;28;19919;-67
2024/02/14 05:53:08;;;;;;;;;;;;;;;0.43;83.65;100286.81;5113914;28;20369;-67
2024/02/14 05:55:37;;;;;;;;;;;;;;;0.40;82.90;100286.66;5114300;28;19919;-67
2024/02/14 05:58:08;;;;;;;;;;;;;;;0.40;83.20;100291.69;5113103;28;19926;-67
2024/02/14 06:00:38;;;;;;;;;;;;;;;0.43;83.29;100286.81;5114250;28;19919;-67
2024/02/14 06:03:07;;;;;;;;;;;;;;;0.42;83.50;100295.13;5114534;28;19965;-67
2024/02/14 06:05:36;;;;;;;;;;;;;;;0.43;83.37;100291.84;5114296;28;20373;-67
2024/02/14 06:08:05;;;;;;;;;;;;;;;0.43;83.61;100291.84;5114166;28;20289;-67
2024/02/14 06:10:34;;;;;;;;;;;;;;;0.44;83.34;100291.91;5113956;28;20373;-67
2024/02/14 06:13:02;;;;;;;;;;;;;;;0.48;83.88;100300.47;5116681;28;20018;-67
2024/02/14 06:15:31;;;;;;;;;;;;;;;0.50;84.02;100303.91;5117482;28;19919;-67
2024/02/14 06:18:01;;;;;;;;;;;;;;;0.56;84.06;100305.06;5117578;28;19943;-67
2024/02/14 06:20:30;;;;;;;;;;;;;;;0.57;84.15;100306.78;5117468;28;20366;-67
2024/02/14 06:22:58;;;;;;;;;;;;;;;0.72;83.79;100306.63;5117732;28;19924;-67
2024/02/14 06:25:33;;;;;;;;;;;;;;;1.01;83.72;100311.41;5117266;28;19925;-67
2024/02/14 06:28:09;;;;;;;;;;;;;;;1.33;84.42;100321.31;5117736;28;19920;-67
2024/02/14 06:30:38;;;;;;;;;;;;;;;1.41;84.13;100311.59;5117519;28;20015;-67
2024/02/14 06:33:08;;;;;;;;;;;;;;;1.49;83.88;100322.00;5117612;28;19920;-67
2024/02/14 06:35:38;;;;;;;;;;;;;;;1.72;83.87;100326.41;5117417;27;20115;-67
2024/02/14 06:38:07;;;;;;;;;;;;;;;1.85;83.06;100327.00;5117446;28;19919;-67
2024/02/14 06:40:36;;;;;;;;;;;;;;;2.04;83.42;100332.06;5117414;28;19919;-67
2024/02/14 06:43:06;;;;;;;;;;;;;;;2.17;82.91;100330.94;5117262;28;19920;-67
2024/02/14 06:45:35;;;;;;;;;;;;;;;2.15;82.30;100334.19;5117041;28;20385;-67
2024/02/14 06:48:16;;;;;;;;;;;;;;;2.12;81.48;100334.91;5117242;28;20041;-67
2024/02/14 06:50:44;;;;;;;;;;;;;;;2.17;81.45;100330.94;5117538;28;19924;-67
2024/02/14 06:53:13;;;;;;;;;;;;;;;2.26;81.82;100338.88;5116928;28;19919;-67
2024/02/14 06:55:41;;;;;;;;;;;;;;;2.32;81.71;100339.16;5117034;28;20014;-67
2024/02/14 06:58:11;;;;;;;;;;;;;;;2.37;81.80;100342.72;5117078;28;19919;-67
2024/02/14 07:00:39;;;;;;;;;;;;;;;2.48;81.86;100341.50;5116973;28;20331;-67
2024/02/14 07:03:08;;;;;;;;;;;;;;;2.63;81.85;100347.19;5116654;28;20388;-66
2024/02/14 07:05:38;;;;;;;;;;;;;;;2.80;81.38;100345.34;5116756;28;19919;-66
2024/02/14 07:08:07;;;;;;;;;;;;;;;3.01;81.62;100360.47;5117155;28;19942;-67
2024/02/14 07:10:35;;;;;;;;;;;;;;;3.18;81.19;100349.38;5115356;28;20292;-67
2024/02/14 07:13:04;;;;;;;;;;;;;;;3.32;81.76;100358.34;5116117;28;19927;-67
2024/02/14 07:15:32;;;;;;;;;;;;;;;3.28;81.28;100352.34;5115452;28;19925;-67
2024/02/14 07:18:01;;;;;;;;;;;;;;;3.36;81.15;100355.13;5116541;28;19927;-67
2024/02/14 07:20:30;;;;;;;;;;;;;;;3.37;80.33;100359.41;5116574;28;19976;-67
2024/02/14 07:23:00;;;;;;;;;;;;;;;3.31;80.34;100346.56;5115714;28;19920;-67
2024/02/14 07:25:28;;;;;;;;;;;;;;;3.32;80.17;100353.31;5115927;28;19919;-67
2024/02/14 07:27:57;;;;;;;;;;;;;;;3.31;79.76;100356.66;5115123;28;19920;-67
2024/02/14 07:30:25;;;;;;;;;;;;;;;3.26;80.14;100358.13;5116397;28;19948;-67
2024/02/14 07:32:53;;;;;;;;;;;;;;;3.25;79.78;100359.78;5114478;28;19963;-67
2024/02/14 07:35:22;;;;;;;;;;;;;;;3.35;79.61;100361.88;5116253;28;19920;-67
2024/02/14 07:37:50;;;;;;;;;;;;;;;3.46;79.87;100363.91;5116278;28;19976;-66
2024/02/14 07:40:20;;;;;;;;;;;;;;;3.53;79.45;100368.44;5116045;28;19955;-67
2024/02/14 07:43:07;;;;;;;;;;;;;;;3.63;79.29;100366.28;5114729;28;20301;-66
2024/02/14 07:45:35;;;;;;;;;;;;;;;3.73;79.52;100357.41;5115751;28;20422;-67
2024/02/14 07:48:04;;;;;;;;;;;;;;;3.79;79.46;100358.47;5116623;28;19942;-66
2024/02/14 07:50:32;;;;;;;;;;;;;;;3.94;78.83;100358.19;5116084;28;19972;-66
2024/02/14 07:53:02;;;;;;;;;;;;;;;4.08;78.97;100362.94;5116059;28;19920;-68
2024/02/14 07:55:32;;;;;;;;;;;;;;;4.12;78.51;100363.03;5115958;28;19920;-67
2024/02/14 07:58:01;;;;;;;;;;;;;;;4.11;78.17;100371.41;5116258;28;19968;-65
2024/02/14 08:00:30;;;;;;;;;;;;;;;4.18;77.82;100378.41;5115635;28;19927;-65
2024/02/14 08:02:58;;;;;;;;;;;;;;;4.14;77.56;100374.06;5115707;28;19920;-65
2024/02/14 08:05:27;;;;;;;;;;;;;;;4.24;77.52;100373.59;5106448;28;19965;-67
2024/02/14 08:07:55;;;;;;;;;;;;;;;4.44;77.48;100373.47;5105637;28;20010;-65
2024/02/14 08:10:23;;;;;;;;;;;;;;;4.57;77.05;100364.63;5103879;28;19920;-68
2024/02/14 08:12:53;;;;;;;;;;;;;;;4.55;76.65;100372.19;5103418;28;19976;-66
2024/02/14 08:15:22;;;;;;;;;;;;;;;4.68;76.78;100373.44;5105545;28;19924;-66
2024/02/14 08:17:53;;;;;;;;;;;;;;;4.83;76.43;100370.56;5103553;28;20370;-65
2024/02/14 08:20:24;;;;;;;;;;;;;;;4.91;75.86;100367.50;5103026;28;19962;-67
2024/02/14 08:23:02;;;;;;;;;;;;;;;4.93;75.93;100365.88;5094718;28;19920;-65
2024/02/14 08:25:31;;;;;;;;;;;;;;;4.98;75.65;100360.94;5094591;28;20015;-66
2024/02/14 08:28:01;;;;;;;;;;;;;;;5.06;75.51;100367.97;5094569;28;20450;-67
2024/02/14 08:30:29;;;;;;;;;;;;;;;5.20;75.30;100366.75;5093439;28;19963;-67
2024/02/14 08:32:58;;;;;;;;;;;;;;;5.24;74.97;100371.09;5094753;28;19920;-67
2024/02/14 08:35:26;;;;;;;;;;;;;;;5.42;74.87;100369.13;5093309;28;20014;-67
2024/02/14 08:37:55;;;;;;;;;;;;;;;5.55;74.25;100377.09;5094753;28;19965;-66
2024/02/14 08:40:26;;;;;;;;;;;;;;;5.73;74.49;100375.13;5093314;28;20354;-67
2024/02/14 08:42:55;;;;;;;;;;;;;;;5.94;73.93;100385.91;5094667;28;20281;-67
2024/02/14 08:45:28;;;;;;;;;;;;;;;5.97;73.91;100380.94;5094340;28;19924;-67
2024/02/14 08:47:57;;;;;;;;;;;;;;;6.25;74.33;100375.81;5094736;28;19927;-68
2024/02/14 08:50:25;;;;;;;;;;;;;;;6.40;74.03;100373.72;5094576;28;20281;-67
2024/02/14 08:52:54;;;;;;;;;;;;;;;6.53;73.46;100372.34;5094540;28;19924;-66
2024/02/14 08:55:22;;;;;;;;;;;;;;;6.47;72.84;100370.53;5094248;28;19920;-66
2024/02/14 08:57:51;;;;;;;;;;;;;;;6.27;72.31;100376.72;5094524;28;19923;-66
2024/02/14 09:00:21;;;;;;;;;;;;;;;6.19;72.44;100373.09;5094201;28;20354;-66
2024/02/14 09:02:51;;;;;;;;;;;;;;;6.40;72.32;100373.72;5094400;28;19951;-66
2024/02/14 09:05:22;;;;;;;;;;;;;;;6.44;71.01;100380.56;5094475;28;20014;-67
2024/02/14 09:07:50;;;;;;;;;;;;;;;6.36;71.08;100382.03;5093213;28;19920;-67
2024/02/14 09:10:19;;;;;;;;;;;;;;;6.33;69.74;100370.97;5110445;28;20440;-66
2024/02/14 09:12:47;;;;;;;;;;;;;;;6.40;69.78;100373.72;5114756;28;20025;-66
2024/02/14 09:15:16;;;;;;;;;;;;;;;6.43;69.82;100367.88;5113082;28;19924;-66
2024/02/14 09:17:45;;;;;;;;;;;;;;;6.37;68.91;100363.47;5112355;28;19919;-67
2024/02/14 09:20:15;;;;;;;;;;;;;;;6.51;69.70;100362.16;5107876;28;20285;-66
2024/02/14 09:22:43;;;;;;;;;;;;;;;6.55;68.96;100363.97;5114349;28;19945;-66
2024/02/14 09:25:12;;;;;;;;;;;;;;;6.55;68.72;100363.97;5114094;28;19920;-66
2024/02/14 09:27:41;;;;;;;;;;;;;;;6.58;68.98;100364.03;5114605;28;19923;-67
2024/02/14 09:30:10;;;;;;;;;;;;;;;6.59;68.68;100368.31;5113205;28;19919;-65
2024/02/14 09:32:56;;;;;;;;;;;;;;;6.66;68.04;100367.66;5114768;28;19946;-65
2024/02/14 09:35:26;;;;;;;;;;;;;;;6.84;67.83;100361.34;5114504;28;19923;-67
2024/02/14 09:37:54;;;;;;;;;;;;;;;6.99;67.12;100366.75;5114099;28;19919;-66
2024/02/14 09:40:23;;;;;;;;;;;;;;;7.14;66.48;100372.22;5114031;28;20311;-66
2024/02/14 09:42:54;;;;;;;;;;;;;;;7.29;66.51;100370.88;5114335;28;19962;-66
2024/02/14 09:45:25;;;;;;;;;;;;;;;7.41;66.06;100373.72;5114446;28;19919;-66
2024/02/14 09:47:55;;;;;;;;;;;;;;;7.69;66.10;100375.19;5117226;28;19941;-67
2024/02/14 09:50:24;;;;;;;;;;;;;;;7.95;65.59;100374.06;5118335;28;19919;-67
2024/02/14 09:52:55;;;;;;;;;;;;;;;7.98;65.09;100373.28;5118389;28;19919;-68
2024/02/14 09:55:24;;;;;;;;;;;;;;;7.97;64.27;100374.94;5116756;28;19926;-66
2024/02/14 09:57:54;;;;;;;;;;;;;;;7.90;63.28;100369.72;5118521;28;19925;-65
2024/02/14 10:00:23;;;;;;;;;;;;;;;8.10;62.56;100363.34;5117909;28;20444;-65
2024/02/14 10:02:51;;;;;;;;;;;;;;;8.25;62.29;100358.59;5118113;28;20436;-66
2024/02/14 10:05:20;;;;;;;;;;;;;;;8.37;62.35;100351.22;5118051;28;19920;-67
2024/02/14 10:07:48;;;;;;;;;;;;;;;8.37;62.84;100358.00;5118001;28;19919;-65
2024/02/14 10:10:18;;;;;;;;;;;;;;;8.38;62.90;100354.59;5117967;28;19965;-67
2024/02/14 10:12:46;;;;;;;;;;;;;;;8.27;62.45;100356.09;5117688;28;20286;-67
2024/02/14 10:15:15;;;;;;;;;;;;;;;8.11;62.78;100358.28;5117672;28;19927;-66
2024/02/14 10:17:44;;;;;;;;;;;;;;;8.08;63.75;100354.84;5115620;28;19969;-65
2024/02/14 10:20:17;;;;;;;;;;;;;;;8.23;63.68;100349.22;5117497;28;19972;-67
2024/02/14 10:22:46;;;;;;;;;;;;;;;8.13;62.68;100349.00;5116454;28;19964;-66
2024/02/14 10:25:14;;;;;;;;;;;;;;;8.21;63.13;100343.22;5117391;28;19927;-67
2024/02/14 10:27:44;;;;;;;;;;;;;;;8.29;62.79;100344.25;5117913;28;19924;-67
2024/02/14 10:30:15;;;;;;;;;;;;;;;8.39;62.33;100347.00;5117802;28;19919;-66
2024/02/14 10:32:47;;;;;;;;;;;;;;;8.43;61.55;100347.91;5117521;28;20336;-67
2024/02/14 10:35:16;;;;;;;;;;;;;;;8.48;62.66;100346.31;5117335;28;19920;-66
2024/02/14 10:37:45;;;;;;;;;;;;;;;8.45;62.46;100343.72;5117542;28;19919;-67
2024/02/14 10:40:13;;;;;;;;;;;;;;;8.45;62.51;100346.25;5117336;28;20273;-66
2024/02/14 10:42:42;;;;;;;;;;;;;;;8.55;62.53;100343.06;5116117;28;19930;-68
2024/02/14 10:45:12;;;;;;;;;;;;;;;8.45;60.86;100341.16;5117648;28;19919;-66
2024/02/14 10:47:52;;;;;;;;;;;;;;;8.49;61.29;100337.88;5117116;28;20026;-68
2024/02/14 10:50:22;;;;;;;;;;;;;;;8.57;62.17;100341.38;5116074;28;19920;-66
2024/02/14 10:52:54;;;;;;;;;;;;;;;8.62;62.03;100327.91;5117231;28;19919;-66
2024/02/14 10:55:26;;;;;;;;;;;;;;;8.66;62.86;100331.41;5116957;28;19923;-67
2024/02/14 10:57:55;;;;;;;;;;;;;;;8.76;62.64;100320.50;5117066;28;20426;-67
2024/02/14 11:00:25;;;;;;;;;;;;;;;9.00;63.04;100323.47;5116677;28;19963;-67
2024/02/14 11:02:54;;;;;;;;;;;;;;;9.18;61.74;100318.66;5117220;28;20372;-67
2024/02/14 11:05:25;;;;;;;;;;;;;;;9.16;60.73;100320.34;5115677;28;19920;-67
2024/02/14 11:07:53;;;;;;;;;;;;;;;9.01;59.54;100320.09;5116930;28;19920;-67
2024/02/14 11:10:23;;;;;;;;;;;;;;;8.97;59.01;100320.88;5116560;28;19923;-67
2024/02/14 11:12:55;;;;;;;;;;;;;;;8.94;59.25;100310.66;5116513;28;19971;-67
2024/02/14 11:15:25;;;;;;;;;;;;;;;9.15;59.52;100318.63;5115375;28;19920;-67
2024/02/14 11:18:04;;;;;;;;;;;;;;;9.45;59.18;100316.50;5116919;28;19980;-66
2024/02/14 11:20:33;;;;;;;;;;;;;;;9.55;57.95;100301.34;5116724;28;19919;-68
2024/02/14 11:23:04;;;;;;;;;;;;;;;9.84;57.45;100297.47;5116589;28;19976;-66
2024/02/14 11:25:35;;;;;;;;;;;;;;;10.04;56.54;100298.56;5116163;28;19919;-67
2024/02/14 11:28:14;;;;;;;;;;;;;;;10.04;56.67;100296.00;5116518;28;19920;-67
2024/02/14 11:30:45;;;;;;;;;;;;;;;10.04;57.04;100288.34;5116500;27;19920;-68
2024/02/14 11:33:17;;;;;;;;;;;;;;;9.91;56.62;100283.97;5116212;28;19964;-67
2024/02/14 11:35:47;;;;;;;;;;;;;;;9.72;56.32;100293.06;5115910;28;20450;-67
2024/02/14 11:38:15;;;;;;;;;;;;;;;9.63;56.26;100281.91;5116330;28;19920;-67
2024/02/14 11:40:44;;;;;;;;;;;;;;;9.57;55.97;100281.84;5115841;28;20022;-67
2024/02/14 11:43:14;;;;;;;;;;;;;;;9.43;54.96;100269.75;5116435;28;19973;-67
2024/02/14 11:45:46;;;;;;;;;;;;;;;9.32;54.81;100276.41;5115808;28;20013;-67
2024/02/14 11:48:15;;;;;;;;;;;;;;;9.32;55.63;100271.31;5114894;28;19919;-66
2024/02/14 11:50:45;;;;;;;;;;;;;;;9.24;56.42;100272.03;5116063;28;19920;-67
2024/02/14 11:53:16;;;;;;;;;;;;;;;9.18;56.48;100277.06;5115899;28;20350;-68
2024/02/14 11:55:46;;;;;;;;;;;;;;;9.14;56.02;100280.41;5115846;28;19980;-66
2024/02/14 11:58:15;;;;;;;;;;;;;;;9.18;56.27;100277.91;5115486;28;20377;-67
2024/02/14 12:00:46;;;;;;;;;;;;;;;9.17;56.23;100268.56;5115515;28;19923;-67
2024/02/14 12:03:18;;;;;;;;;;;;;;;9.29;56.35;100265.31;5115425;28;20396;-67
2024/02/14 12:05:47;;;;;;;;;;;;;;;9.28;55.60;100259.41;5114475;28;20408;-66
2024/02/14 12:08:17;;;;;;;;;;;;;;;9.31;55.08;100261.97;5116062;28;19919;-65
2024/02/14 12:10:49;;;;;;;;;;;;;;;9.39;54.90;100257.84;5114760;28;20377;-67
2024/02/14 12:13:19;;;;;;;;;;;;;;;9.50;54.73;100262.22;5115602;28;19919;-66
2024/02/14 12:15:49;;;;;;;;;;;;;;;9.45;55.17;100252.81;5115182;28;19920;-67
2024/02/14 12:18:18;;;;;;;;;;;;;;;9.42;55.14;100262.97;5115328;28;19992;-66
2024/02/14 12:20:49;;;;;;;;;;;;;;;9.50;55.45;100257.13;5115454;28;19919;-67
2024/02/14 12:23:25;;;;;;;;;;;;;;;9.48;56.42;100262.19;5115043;28;19969;-67
2024/02/14 12:25:55;;;;;;;;;;;;;;;9.52;56.01;100255.44;5115008;28;19926;-66
2024/02/14 12:28:23;;;;;;;;;;;;;;;9.55;56.04;100243.59;5115288;28;19919;-67
2024/02/14 12:30:56;;;;;;;;;;;;;;;9.75;57.01;100248.91;5115151;28;19924;-67
2024/02/14 12:33:26;;;;;;;;;;;;;;;9.78;57.09;100247.28;5113677;28;19920;-66
2024/02/14 12:35:56;;;;;;;;;;;;;;;9.66;57.03;100242.03;5115738;28;19920;-66
2024/02/14 12:38:24;;;;;;;;;;;;;;;9.78;57.20;100248.97;5115117;28;20369;-65
2024/02/14 12:40:53;;;;;;;;;;;;;;;9.92;57.19;100245.72;5114966;28;19927;-65
2024/02/14 12:43:23;;;;;;;;;;;;;;;9.99;56.94;100241.53;5115067;28;20361;-66
2024/02/14 12:45:51;;;;;;;;;;;;;;;9.99;57.43;100241.53;5114965;28;20330;-67
2024/02/14 12:48:26;;;;;;;;;;;;;;;9.89;57.59;100242.28;5114747;28;20381;-66
2024/02/14 12:50:56;;;;;;;;;;;;;;;10.01;58.09;100239.88;5115006;28;19919;-65
2024/02/14 12:53:25;;;;;;;;;;;;;;;10.17;58.19;100240.94;5111636;28;20450;-67
2024/02/14 12:55:53;;;;;;;;;;;;;;;10.58;57.95;100235.31;5101911;28;19920;-67
2024/02/14 12:58:23;;;;;;;;;;;;;;;10.62;57.76;100236.22;5103401;28;20420;-68
2024/02/14 13:00:53;;;;;;;;;;;;;;;10.66;57.99;100232.84;5104652;28;20345;-67
2024/02/14 13:03:22;;;;;;;;;;;;;;;10.68;57.74;100238.81;5101956;28;19930;-67